createdAt,value
2019-04-27T00:00:49.333Z,18.25
2019-04-27T00:02:13.462Z,18.55
2019-04-27T00:03:35.040Z,20.45
2019-04-27T00:04:48.687Z,16.60
2019-04-27T00:05:53.552Z,16.37
2019-04-27T00:07:00.004Z,17.15
2019-04-27T00:08:15.432Z,16.02
2019-04-27T00:09:27.192Z,17.82
2019-04-27T00:10:33.591Z,17.82
2019-04-27T00:11:42.094Z,17.65
2019-04-27T00:12:46.129Z,16.25
2019-04-27T00:13:50.910Z,18.42
2019-04-27T00:14:57.159Z,18.75
2019-04-27T00:16:13.472Z,18.42
2019-04-27T00:17:44.830Z,19.52
2019-04-27T00:18:39.627Z,21.80
2019-04-27T00:19:58.052Z,18.65
2019-04-27T00:21:04.150Z,19.23
2019-04-27T00:22:10.821Z,22.40
2019-04-27T00:23:31.948Z,18.10
2019-04-27T00:24:37.984Z,17.50
2019-04-27T00:25:43.867Z,16.87
2019-04-27T00:26:48.437Z,18.32
2019-04-27T00:27:53.502Z,20.55
2019-04-27T00:28:58.320Z,17.48
2019-04-27T00:30:03.856Z,18.55
2019-04-27T00:31:09.023Z,16.57
2019-04-27T00:32:13.563Z,18.82
2019-04-27T00:33:18.032Z,20.77
2019-04-27T00:34:23.633Z,14.47
2019-04-27T00:35:29.806Z,17.52
2019-04-27T00:36:53.446Z,18.27
2019-04-27T00:38:00.008Z,20.37
2019-04-27T00:39:26.303Z,14.20
2019-04-27T00:40:33.554Z,17.35
2019-04-27T00:41:38.329Z,12.45
2019-04-27T00:42:44.110Z,14.15
2019-04-27T00:43:48.627Z,13.95
2019-04-27T00:44:54.254Z,16.80
2019-04-27T00:45:58.698Z,15.13
2019-04-27T00:47:04.872Z,12.50
2019-04-27T00:48:09.669Z,13.93
2019-04-27T00:49:14.137Z,17.48
2019-04-27T00:50:18.895Z,15.43
2019-04-27T00:51:23.643Z,15.43
2019-04-27T00:52:28.175Z,14.15
2019-04-27T00:53:33.515Z,17.77
2019-04-27T00:54:38.096Z,17.05
2019-04-27T00:55:47.415Z,17.87
2019-04-27T00:56:53.597Z,23.02
2019-04-27T00:58:04.038Z,19.95
2019-04-27T00:59:17.525Z,21.07
2019-04-27T01:00:39.568Z,20.70
2019-04-27T01:01:51.435Z,23.32
2019-04-27T01:03:03.900Z,20.65
2019-04-27T01:04:19.156Z,23.90
2019-04-27T01:05:25.244Z,21.95
2019-04-27T01:06:29.716Z,22.30
2019-04-27T01:07:34.180Z,23.70
2019-04-27T01:08:38.936Z,26.00
2019-04-27T01:09:43.496Z,23.00
2019-04-27T01:10:48.933Z,25.57
2019-04-27T01:11:53.541Z,29.87
2019-04-27T01:12:57.946Z,27.30
2019-04-27T01:14:03.888Z,27.22
2019-04-27T01:15:08.542Z,27.00
2019-04-27T01:16:15.641Z,29.57
2019-04-27T01:17:19.697Z,28.40
2019-04-27T01:18:24.432Z,30.48
2019-04-27T01:19:30.196Z,29.98
2019-04-27T01:20:34.691Z,28.90
2019-04-27T01:21:39.700Z,30.88
2019-04-27T01:22:45.157Z,29.63
2019-04-27T01:23:49.617Z,28.65
2019-04-27T01:24:54.177Z,28.12
2019-04-27T01:26:03.216Z,31.87
2019-04-27T01:27:24.125Z,29.15
2019-04-27T01:28:32.902Z,31.70
2019-04-27T01:29:39.222Z,28.30
2019-04-27T01:30:46.854Z,31.57
2019-04-27T01:31:51.600Z,31.52
2019-04-27T01:32:56.068Z,34.00
2019-04-27T01:34:00.536Z,32.35
2019-04-27T01:35:05.671Z,28.32
2019-04-27T01:36:10.747Z,33.50
2019-04-27T01:37:16.961Z,39.35
2019-04-27T01:38:21.429Z,37.28
2019-04-27T01:39:26.863Z,37.23
2019-04-27T01:40:31.353Z,36.60
2019-04-27T01:41:36.110Z,38.88
2019-04-27T01:42:41.832Z,32.95
2019-04-27T01:43:46.306Z,35.35
2019-04-27T01:44:51.118Z,34.15
2019-04-27T01:45:56.028Z,30.75
2019-04-27T01:47:00.489Z,30.75
2019-04-27T01:48:05.027Z,30.77
2019-04-27T01:49:09.926Z,34.18
2019-04-27T01:50:14.564Z,33.88
2019-04-27T01:51:20.945Z,30.90
2019-04-27T01:52:25.507Z,35.52
2019-04-27T01:53:30.437Z,29.70
2019-04-27T01:54:35.004Z,32.20
2019-04-27T01:55:40.779Z,31.82
2019-04-27T01:56:45.338Z,32.60
2019-04-27T01:57:50.089Z,32.93
2019-04-27T01:58:54.551Z,33.40
2019-04-27T01:59:59.162Z,34.85
2019-04-27T02:01:24.418Z,31.73
2019-04-27T02:02:30.806Z,30.60
2019-04-27T02:03:52.608Z,32.58
2019-04-27T02:05:14.676Z,30.77
2019-04-27T02:06:20.789Z,29.35
2019-04-27T02:07:25.651Z,28.47
2019-04-27T02:08:30.380Z,27.13
2019-04-27T02:09:34.848Z,30.45
2019-04-27T02:10:39.688Z,30.37
2019-04-27T02:11:44.158Z,28.15
2019-04-27T02:12:48.893Z,30.85
2019-04-27T02:13:53.651Z,35.58
2019-04-27T02:14:58.869Z,31.85
2019-04-27T02:16:03.379Z,34.50
2019-04-27T02:17:09.603Z,29.45
2019-04-27T02:18:14.464Z,34.63
2019-04-27T02:19:19.496Z,34.85
2019-04-27T02:20:24.297Z,35.63
2019-04-27T02:21:29.479Z,34.35
2019-04-27T02:22:33.928Z,34.50
2019-04-27T02:23:39.437Z,36.55
2019-04-27T02:24:44.202Z,38.48
2019-04-27T02:25:49.677Z,35.00
2019-04-27T02:26:54.526Z,35.08
2019-04-27T02:28:00.627Z,36.55
2019-04-27T02:29:09.487Z,39.30
2019-04-27T02:30:21.533Z,37.95
2019-04-27T02:31:45.524Z,44.75
2019-04-27T02:33:12.263Z,45.78
2019-04-27T02:34:21.773Z,40.90
2019-04-27T02:35:26.236Z,41.60
2019-04-27T02:36:30.748Z,35.88
2019-04-27T02:37:35.647Z,43.48
2019-04-27T02:38:40.709Z,40.03
2019-04-27T02:39:45.239Z,45.67
2019-04-27T02:40:59.815Z,39.20
2019-04-27T02:42:03.942Z,39.63
2019-04-27T02:43:10.484Z,38.33
2019-04-27T02:44:22.601Z,40.85
2019-04-27T02:45:27.066Z,43.00
2019-04-27T02:46:31.747Z,44.53
2019-04-27T02:47:36.486Z,38.90
2019-04-27T02:48:55.339Z,39.92
2019-04-27T02:49:47.401Z,43.08
2019-04-27T02:50:53.502Z,44.08
2019-04-27T02:52:05.381Z,44.48
2019-04-27T02:53:11.127Z,47.50
2019-04-27T02:54:16.076Z,45.12
2019-04-27T02:55:20.546Z,49.00
2019-04-27T02:56:25.191Z,50.75
2019-04-27T02:57:30.433Z,49.23
2019-04-27T02:58:34.930Z,49.20
2019-04-27T02:59:40.036Z,49.50
2019-04-27T03:00:44.928Z,47.27
2019-04-27T03:02:02.898Z,52.85
2019-04-27T03:03:10.171Z,48.13
2019-04-27T03:04:14.839Z,50.78
2019-04-27T03:05:22.374Z,52.08
2019-04-27T03:06:26.838Z,44.45
2019-04-27T03:07:31.610Z,47.58
2019-04-27T03:08:36.072Z,56.30
2019-04-27T03:09:40.546Z,54.25
2019-04-27T03:10:45.019Z,50.35
2019-04-27T03:11:50.084Z,48.52
2019-04-27T03:13:00.110Z,54.77
2019-04-27T03:14:15.107Z,51.02
2019-04-27T03:15:22.879Z,52.93
2019-04-27T03:16:33.256Z,51.37
2019-04-27T03:17:49.473Z,45.05
2019-04-27T03:19:10.213Z,49.48
2019-04-27T03:20:03.709Z,49.40
2019-04-27T03:21:12.775Z,37.95
2019-04-27T03:22:20.069Z,36.98
2019-04-27T03:23:24.800Z,40.73
2019-04-27T03:24:46.677Z,44.90
2019-04-27T03:25:52.780Z,36.68
2019-04-27T03:27:00.500Z,37.45
2019-04-27T03:28:10.525Z,35.70
2019-04-27T03:29:14.515Z,35.43
2019-04-27T03:30:22.963Z,34.00
2019-04-27T03:31:25.580Z,32.03
2019-04-27T03:32:31.658Z,32.55
2019-04-27T03:33:36.482Z,29.87
2019-04-27T03:34:42.060Z,31.25
2019-04-27T03:35:46.940Z,30.92
2019-04-27T03:36:51.858Z,31.23
2019-04-27T03:37:56.328Z,29.42
2019-04-27T03:39:00.797Z,26.55
2019-04-27T03:40:10.259Z,24.80
2019-04-27T03:41:14.180Z,24.50
2019-04-27T03:42:20.750Z,26.75
2019-04-27T03:43:24.915Z,27.00
2019-04-27T03:44:32.050Z,25.95
2019-04-27T03:45:36.024Z,25.68
2019-04-27T03:46:41.739Z,22.22
2019-04-27T03:47:46.512Z,24.02
2019-04-27T03:48:51.141Z,24.18
2019-04-27T03:49:55.670Z,22.80
2019-04-27T03:51:01.779Z,27.13
2019-04-27T03:52:09.631Z,26.62
2019-04-27T03:53:29.805Z,22.05
2019-04-27T03:54:50.373Z,19.10
2019-04-27T03:56:01.391Z,24.18
2019-04-27T03:57:09.933Z,21.20
2019-04-27T03:58:21.777Z,24.02
2019-04-27T03:59:34.055Z,20.75
2019-04-27T04:00:39.830Z,22.50
2019-04-27T04:01:44.411Z,19.37
2019-04-27T04:02:50.224Z,19.15
2019-04-27T04:03:55.164Z,21.10
2019-04-27T04:04:59.945Z,19.92
2019-04-27T04:06:04.845Z,22.25
2019-04-27T04:07:15.581Z,21.10
2019-04-27T04:08:20.385Z,17.77
2019-04-27T04:09:26.482Z,19.57
2019-04-27T04:10:32.912Z,21.33
2019-04-27T04:11:45.376Z,20.50
2019-04-27T04:12:56.381Z,17.77
2019-04-27T04:14:02.404Z,17.60
2019-04-27T04:15:10.010Z,17.77
2019-04-27T04:16:32.381Z,18.82
2019-04-27T04:17:40.226Z,14.60
2019-04-27T04:19:00.346Z,15.23
2019-04-27T04:20:06.585Z,16.87
2019-04-27T04:21:11.052Z,16.25
2019-04-27T04:22:15.531Z,18.90
2019-04-27T04:23:20.616Z,16.12
2019-04-27T04:24:29.342Z,16.17
2019-04-27T04:25:33.383Z,17.32
2019-04-27T04:26:40.264Z,17.98
2019-04-27T04:27:44.312Z,16.07
2019-04-27T04:28:50.006Z,16.48
2019-04-27T04:29:54.923Z,15.08
2019-04-27T04:31:00.497Z,17.70
2019-04-27T04:32:05.576Z,20.12
2019-04-27T04:33:10.597Z,15.68
2019-04-27T04:34:15.123Z,17.65
2019-04-27T04:35:22.226Z,15.48
2019-04-27T04:36:26.708Z,14.10
2019-04-27T04:37:31.154Z,14.60
2019-04-27T04:38:36.011Z,14.55
2019-04-27T04:39:40.747Z,14.30
2019-04-27T04:40:46.862Z,14.23
2019-04-27T04:41:55.743Z,16.00
2019-04-27T04:43:07.600Z,14.03
2019-04-27T04:44:21.127Z,15.23
2019-04-27T04:45:27.219Z,13.65
2019-04-27T04:46:33.326Z,15.35
2019-04-27T04:47:45.448Z,14.18
2019-04-27T04:48:50.442Z,14.78
2019-04-27T04:50:10.380Z,13.30
2019-04-27T04:51:01.052Z,13.55
2019-04-27T04:52:05.790Z,15.98
2019-04-27T04:53:12.574Z,14.80
2019-04-27T04:54:16.408Z,16.80
2019-04-27T04:55:20.889Z,17.10
2019-04-27T04:56:25.341Z,15.60
2019-04-27T04:57:29.997Z,14.83
2019-04-27T04:58:34.536Z,13.85
2019-04-27T04:59:39.161Z,16.57
2019-04-27T05:00:43.845Z,15.05
2019-04-27T05:01:49.913Z,14.68
2019-04-27T05:02:54.548Z,14.85
2019-04-27T05:03:59.129Z,17.60
2019-04-27T05:05:05.087Z,17.25
2019-04-27T05:06:09.853Z,17.77
2019-04-27T05:07:14.322Z,15.55
2019-04-27T05:08:19.143Z,15.53
2019-04-27T05:09:23.726Z,14.03
2019-04-27T05:10:28.864Z,14.93
2019-04-27T05:11:34.373Z,14.33
2019-04-27T05:12:38.837Z,13.65
2019-04-27T05:13:43.295Z,16.45
2019-04-27T05:14:48.906Z,15.78
2019-04-27T05:15:53.797Z,18.07
2019-04-27T05:16:59.174Z,15.78
2019-04-27T05:18:04.091Z,15.45
2019-04-27T05:19:11.095Z,16.75
2019-04-27T05:20:26.213Z,15.30
2019-04-27T05:21:32.884Z,14.65
2019-04-27T05:22:37.353Z,16.70
2019-04-27T05:23:42.102Z,14.28
2019-04-27T05:24:49.330Z,16.82
2019-04-27T05:25:53.865Z,18.85
2019-04-27T05:26:59.032Z,19.12
2019-04-27T05:28:03.952Z,16.87
2019-04-27T05:29:09.225Z,17.98
2019-04-27T05:30:13.750Z,16.60
2019-04-27T05:31:19.511Z,19.52
2019-04-27T05:32:24.363Z,19.30
2019-04-27T05:33:28.829Z,19.35
2019-04-27T05:34:33.289Z,21.45
2019-04-27T05:35:40.634Z,19.60
2019-04-27T05:36:48.784Z,20.25
2019-04-27T05:37:50.381Z,20.35
2019-04-27T05:38:54.844Z,21.48
2019-04-27T05:39:59.318Z,21.87
2019-04-27T05:41:03.871Z,19.42
2019-04-27T05:42:12.557Z,23.98
2019-04-27T05:43:16.288Z,23.38
2019-04-27T05:44:25.736Z,21.85
2019-04-27T05:45:57.070Z,20.05
2019-04-27T05:47:05.315Z,20.12
2019-04-27T05:48:11.845Z,24.67
2019-04-27T05:49:18.799Z,22.58
2019-04-27T05:50:35.514Z,23.35
2019-04-27T05:51:36.651Z,21.77
2019-04-27T05:52:36.603Z,26.95
2019-04-27T05:53:41.069Z,24.60
2019-04-27T05:54:45.705Z,24.52
2019-04-27T05:55:50.188Z,25.40
2019-04-27T05:56:54.657Z,27.98
2019-04-27T05:57:59.281Z,27.25
2019-04-27T05:59:03.828Z,28.42
2019-04-27T06:00:09.280Z,28.87
2019-04-27T06:01:13.762Z,28.35
2019-04-27T06:02:20.760Z,29.00
2019-04-27T06:03:24.390Z,27.07
2019-04-27T06:04:29.227Z,27.60
2019-04-27T06:05:33.683Z,29.05
2019-04-27T06:06:39.883Z,29.15
2019-04-27T06:07:44.412Z,26.85
2019-04-27T06:08:49.548Z,31.77
2019-04-27T06:09:54.008Z,29.37
2019-04-27T06:10:59.319Z,26.93
2019-04-27T06:12:03.879Z,34.63
2019-04-27T06:13:10.611Z,27.50
2019-04-27T06:14:14.507Z,30.77
2019-04-27T06:15:19.856Z,31.33
2019-04-27T06:16:24.433Z,32.75
2019-04-27T06:17:29.894Z,29.45
2019-04-27T06:18:34.872Z,30.45
2019-04-27T06:19:39.336Z,29.92
2019-04-27T06:20:53.323Z,29.10
2019-04-27T06:21:50.149Z,30.37
2019-04-27T06:22:54.548Z,30.05
2019-04-27T06:23:59.092Z,32.40
2019-04-27T06:25:04.362Z,31.87
2019-04-27T06:26:11.671Z,30.95
2019-04-27T06:27:14.982Z,33.28
2019-04-27T06:28:19.733Z,29.77
2019-04-27T06:29:24.553Z,30.57
2019-04-27T06:30:29.335Z,28.30
2019-04-27T06:31:34.076Z,27.90
2019-04-27T06:32:39.564Z,29.12
2019-04-27T06:33:44.184Z,28.00
2019-04-27T06:34:48.987Z,28.05
2019-04-27T06:35:53.480Z,30.60
2019-04-27T06:36:59.944Z,30.08
2019-04-27T06:38:04.562Z,27.40
2019-04-27T06:39:09.929Z,27.37
2019-04-27T06:40:14.899Z,31.07
2019-04-27T06:41:19.379Z,28.55
2019-04-27T06:42:23.871Z,28.32
2019-04-27T06:43:29.424Z,30.10
2019-04-27T06:44:33.983Z,27.87
2019-04-27T06:45:38.855Z,24.80
2019-04-27T06:46:43.416Z,27.77
2019-04-27T06:47:48.837Z,27.82
2019-04-27T06:48:54.045Z,27.73
2019-04-27T06:49:58.786Z,29.77
2019-04-27T06:51:05.678Z,24.90
2019-04-27T06:52:09.608Z,27.13
2019-04-27T06:53:14.072Z,25.70
2019-04-27T06:54:19.767Z,28.87
2019-04-27T06:55:25.076Z,27.62
2019-04-27T06:56:29.941Z,28.57
2019-04-27T06:57:34.714Z,26.52
2019-04-27T06:58:40.737Z,30.90
2019-04-27T06:59:45.379Z,28.27
2019-04-27T07:00:50.221Z,27.55
2019-04-27T07:01:55.040Z,26.90
2019-04-27T07:02:59.768Z,31.40
2019-04-27T07:04:04.252Z,31.17
2019-04-27T07:05:09.112Z,29.90
2019-04-27T07:06:13.568Z,29.18
2019-04-27T07:07:19.468Z,30.05
2019-04-27T07:08:24.068Z,29.57
2019-04-27T07:09:29.649Z,33.65
2019-04-27T07:10:34.143Z,29.37
2019-04-27T07:11:39.382Z,31.10
2019-04-27T07:12:44.058Z,35.33
2019-04-27T07:13:49.789Z,34.48
2019-04-27T07:14:55.194Z,32.00
2019-04-27T07:15:59.788Z,32.78
2019-04-27T07:17:04.233Z,34.20
2019-04-27T07:18:09.717Z,34.58
2019-04-27T07:19:14.654Z,35.28
2019-04-27T07:20:19.536Z,34.83
2019-04-27T07:21:24.884Z,36.23
2019-04-27T07:22:29.954Z,33.70
2019-04-27T07:23:38.924Z,36.73
2019-04-27T07:24:48.705Z,38.02
2019-04-27T07:25:53.600Z,34.73
2019-04-27T07:26:59.665Z,34.83
2019-04-27T07:28:04.671Z,35.45
2019-04-27T07:29:09.718Z,37.25
2019-04-27T07:30:14.472Z,36.75
2019-04-27T07:31:19.364Z,38.15
2019-04-27T07:32:23.809Z,37.50
2019-04-27T07:33:29.679Z,41.90
2019-04-27T07:34:35.117Z,40.55
2019-04-27T07:35:39.590Z,41.08
2019-04-27T07:36:44.349Z,36.93
2019-04-27T07:37:49.152Z,40.50
2019-04-27T07:38:53.629Z,40.20
2019-04-27T07:39:59.151Z,38.23
2019-04-27T07:41:04.074Z,37.40
2019-04-27T07:42:15.364Z,43.58
2019-04-27T07:43:30.077Z,40.50
2019-04-27T07:44:36.334Z,37.33
2019-04-27T07:45:41.481Z,39.50
2019-04-27T07:46:47.578Z,39.03
2019-04-27T07:47:53.997Z,41.37
2019-04-27T07:48:59.464Z,41.10
2019-04-27T07:50:05.054Z,40.17
2019-04-27T07:51:09.520Z,41.65
2019-04-27T07:52:14.003Z,44.27
2019-04-27T07:53:19.351Z,42.80
2019-04-27T07:54:23.839Z,40.73
2019-04-27T07:55:28.908Z,41.95
2019-04-27T07:56:33.745Z,39.95
2019-04-27T07:57:39.786Z,41.10
2019-04-27T07:58:44.764Z,44.25
2019-04-27T07:59:50.238Z,43.87
2019-04-27T08:00:54.844Z,40.95
2019-04-27T08:01:59.342Z,45.98
2019-04-27T08:03:03.819Z,43.73
2019-04-27T08:04:09.115Z,42.80
2019-04-27T08:05:14.988Z,41.70
2019-04-27T08:06:19.451Z,40.65
2019-04-27T08:07:23.990Z,39.58
2019-04-27T08:08:28.669Z,41.73
2019-04-27T08:09:33.404Z,42.00
2019-04-27T08:10:39.211Z,39.30
2019-04-27T08:11:43.869Z,44.95
2019-04-27T08:12:49.852Z,41.33
2019-04-27T08:13:54.687Z,44.18
2019-04-27T08:15:00.066Z,47.20
2019-04-27T08:16:04.581Z,46.08
2019-04-27T08:17:09.738Z,40.08
2019-04-27T08:18:14.304Z,41.00
2019-04-27T08:19:19.619Z,41.55
2019-04-27T08:20:24.184Z,41.42
2019-04-27T08:21:28.962Z,41.45
2019-04-27T08:22:33.776Z,42.30
2019-04-27T08:23:39.405Z,39.98
2019-04-27T08:24:44.276Z,43.90
2019-04-27T08:25:49.027Z,44.25
2019-04-27T08:27:01.117Z,37.90
2019-04-27T08:28:10.454Z,38.65
2019-04-27T08:29:18.395Z,42.65
2019-04-27T08:30:24.619Z,41.08
2019-04-27T08:31:42.311Z,38.70
2019-04-27T08:32:49.726Z,42.80
2019-04-27T08:33:54.385Z,42.43
2019-04-27T08:34:59.463Z,38.20
2019-04-27T08:36:04.287Z,40.25
2019-04-27T08:37:09.274Z,41.28
2019-04-27T08:38:14.745Z,39.58
2019-04-27T08:39:19.246Z,39.67
2019-04-27T08:40:24.047Z,39.75
2019-04-27T08:41:29.544Z,39.00
2019-04-27T08:42:34.068Z,37.23
2019-04-27T08:43:39.144Z,37.17
2019-04-27T08:44:43.595Z,36.65
2019-04-27T08:45:48.914Z,38.05
2019-04-27T08:46:53.439Z,35.78
2019-04-27T08:47:59.547Z,37.85
2019-04-27T08:49:05.118Z,38.90
2019-04-27T08:50:09.831Z,34.50
2019-04-27T08:51:14.612Z,37.93
2019-04-27T08:52:19.457Z,33.98
2019-04-27T08:53:24.212Z,39.18
2019-04-27T08:54:29.479Z,36.20
2019-04-27T08:55:34.095Z,38.02
2019-04-27T08:56:39.616Z,37.70
2019-04-27T08:57:44.372Z,37.58
2019-04-27T08:58:49.663Z,39.55
2019-04-27T08:59:55.276Z,34.78
2019-04-27T09:00:59.740Z,32.73
2019-04-27T09:02:04.276Z,35.28
2019-04-27T09:03:09.523Z,33.13
2019-04-27T09:04:14.869Z,35.20
2019-04-27T09:05:21.283Z,33.50
2019-04-27T09:06:25.702Z,36.58
2019-04-27T09:07:31.935Z,39.98
2019-04-27T09:08:41.261Z,35.20
2019-04-27T09:09:49.697Z,33.85
2019-04-27T09:10:59.002Z,36.73
2019-04-27T09:12:21.173Z,36.35
2019-04-27T09:13:43.996Z,33.38
2019-04-27T09:15:04.370Z,36.83
2019-04-27T09:16:22.515Z,35.40
2019-04-27T09:17:31.591Z,39.83
2019-04-27T09:18:36.350Z,34.92
2019-04-27T09:19:45.203Z,41.40
2019-04-27T09:20:54.206Z,34.50
2019-04-27T09:22:15.812Z,39.25
2019-04-27T09:23:16.528Z,33.50
2019-04-27T09:24:21.002Z,32.33
2019-04-27T09:25:25.780Z,32.95
2019-04-27T09:26:30.418Z,32.45
2019-04-27T09:27:35.181Z,32.30
2019-04-27T09:28:39.941Z,38.78
2019-04-27T09:29:44.437Z,31.67
2019-04-27T09:30:49.793Z,37.98
2019-04-27T09:31:54.651Z,34.73
2019-04-27T09:32:59.577Z,36.40
2019-04-27T09:34:05.570Z,33.42
2019-04-27T09:35:10.282Z,33.55
2019-04-27T09:36:16.569Z,35.20
2019-04-27T09:37:21.079Z,35.90
2019-04-27T09:38:26.440Z,33.92
2019-04-27T09:39:31.397Z,31.27
2019-04-27T09:40:36.130Z,31.93
2019-04-27T09:41:40.755Z,33.50
2019-04-27T09:42:46.380Z,35.20
2019-04-27T09:43:50.883Z,29.12
2019-04-27T09:44:55.887Z,36.90
2019-04-27T09:46:00.295Z,33.45
2019-04-27T09:47:06.123Z,35.90
2019-04-27T09:48:10.711Z,44.48
2019-04-27T09:49:15.786Z,32.70
2019-04-27T09:50:20.681Z,32.73
2019-04-27T09:51:25.681Z,32.80
2019-04-27T09:52:30.724Z,33.30
2019-04-27T09:53:36.468Z,36.17
2019-04-27T09:54:41.050Z,30.43
2019-04-27T09:55:46.862Z,31.82
2019-04-27T09:56:51.686Z,27.67
2019-04-27T09:57:56.897Z,26.02
2019-04-27T09:59:01.506Z,27.93
2019-04-27T10:00:09.665Z,26.77
2019-04-27T10:01:16.375Z,27.90
2019-04-27T10:02:21.243Z,25.97
2019-04-27T10:03:26.646Z,25.00
2019-04-27T10:04:32.414Z,22.85
2019-04-27T10:05:36.934Z,25.90
2019-04-27T10:06:41.429Z,24.70
2019-04-27T10:07:47.582Z,24.82
2019-04-27T10:08:53.512Z,24.85
2019-04-27T10:09:57.983Z,24.80
2019-04-27T10:11:02.760Z,21.42
2019-04-27T10:12:07.650Z,22.05
2019-04-27T10:13:12.590Z,23.12
2019-04-27T10:14:17.036Z,22.00
2019-04-27T10:15:21.507Z,26.57
2019-04-27T10:16:29.866Z,22.13
2019-04-27T10:17:34.329Z,21.93
2019-04-27T10:18:38.802Z,20.88
2019-04-27T10:19:43.277Z,21.50
2019-04-27T10:20:58.996Z,23.12
2019-04-27T10:21:53.956Z,22.27
2019-04-27T10:22:58.424Z,22.62
2019-04-27T10:24:02.890Z,21.60
2019-04-27T10:25:10.552Z,23.05
2019-04-27T10:26:15.801Z,20.30
2019-04-27T10:27:20.280Z,21.93
2019-04-27T10:28:25.039Z,20.15
2019-04-27T10:29:29.507Z,18.73
2019-04-27T10:30:35.372Z,19.77
2019-04-27T10:31:41.597Z,22.55
2019-04-27T10:32:46.366Z,23.62
2019-04-27T10:33:50.829Z,29.67
2019-04-27T10:34:55.296Z,24.75
2019-04-27T10:35:59.766Z,21.48
2019-04-27T10:37:06.013Z,19.77
2019-04-27T10:38:10.964Z,22.85
2019-04-27T10:39:17.065Z,21.20
2019-04-27T10:40:21.572Z,20.85
2019-04-27T10:41:26.072Z,25.45
2019-04-27T10:42:30.896Z,20.97
2019-04-27T10:43:35.365Z,19.35
2019-04-27T10:44:39.831Z,20.75
2019-04-27T10:45:46.297Z,23.62
2019-04-27T10:46:50.865Z,22.32
2019-04-27T10:47:56.272Z,21.23
2019-04-27T10:49:00.777Z,21.50
2019-04-27T10:50:09.076Z,21.02
2019-04-27T10:51:13.836Z,18.57
2019-04-27T10:52:18.321Z,20.85
2019-04-27T10:53:23.074Z,20.72
2019-04-27T10:54:27.541Z,17.42
2019-04-27T10:55:32.610Z,23.35
2019-04-27T10:56:37.110Z,18.10
2019-04-27T10:57:41.573Z,15.80
2019-04-27T10:58:46.197Z,16.62
2019-04-27T10:59:50.670Z,21.10
2019-04-27T11:00:59.425Z,18.00
2019-04-27T11:02:04.271Z,12.98
2019-04-27T11:03:09.031Z,17.82
2019-04-27T11:04:15.931Z,16.27
2019-04-27T11:05:23.521Z,22.85
2019-04-27T11:06:29.697Z,15.75
2019-04-27T11:07:38.608Z,14.93
2019-04-27T11:08:43.075Z,15.28
2019-04-27T11:09:47.910Z,15.55
2019-04-27T11:10:52.380Z,14.03
2019-04-27T11:11:57.499Z,15.03
2019-04-27T11:13:01.962Z,16.80
2019-04-27T11:14:06.945Z,12.68
2019-04-27T11:15:12.064Z,14.73
2019-04-27T11:16:16.598Z,15.68
2019-04-27T11:17:21.240Z,12.20
2019-04-27T11:18:25.907Z,14.75
2019-04-27T11:19:30.497Z,11.50
2019-04-27T11:20:36.272Z,14.25
2019-04-27T11:21:40.802Z,16.55
2019-04-27T11:22:46.498Z,17.50
2019-04-27T11:23:51.323Z,14.47
2019-04-27T11:24:56.372Z,15.28
2019-04-27T11:26:02.455Z,14.18
2019-04-27T11:27:07.746Z,14.63
2019-04-27T11:28:12.281Z,18.10
2019-04-27T11:29:17.128Z,18.92
2019-04-27T11:30:22.035Z,18.40
2019-04-27T11:31:26.507Z,15.28
2019-04-27T11:32:31.022Z,19.90
2019-04-27T11:33:36.340Z,20.68
2019-04-27T11:35:00.824Z,15.93
2019-04-27T11:36:18.870Z,16.95
2019-04-27T11:37:24.990Z,19.52
2019-04-27T11:38:29.747Z,17.60
2019-04-27T11:39:35.934Z,15.53
2019-04-27T11:40:40.452Z,16.23
2019-04-27T11:41:44.921Z,18.48
2019-04-27T11:42:49.411Z,16.62
2019-04-27T11:43:54.165Z,19.98
2019-04-27T11:44:58.638Z,17.60
2019-04-27T11:46:03.097Z,16.80
2019-04-27T11:47:07.887Z,19.45
2019-04-27T11:48:12.665Z,16.50
2019-04-27T11:49:17.128Z,18.87
2019-04-27T11:50:21.959Z,17.65
2019-04-27T11:51:26.767Z,19.20
2019-04-27T11:52:32.478Z,15.45
2019-04-27T11:53:37.306Z,15.58
2019-04-27T11:54:42.089Z,15.78
2019-04-27T11:55:47.024Z,14.63
2019-04-27T11:56:51.814Z,15.55
2019-04-27T11:57:57.221Z,14.65
2019-04-27T11:59:01.689Z,14.70
2019-04-27T12:00:12.384Z,15.25
2019-04-27T12:01:16.867Z,16.10
2019-04-27T12:02:21.363Z,15.08
2019-04-27T12:03:25.892Z,17.15
2019-04-27T12:04:30.361Z,16.93
2019-04-27T12:05:36.283Z,14.85
2019-04-27T12:06:41.738Z,15.00
2019-04-27T12:07:47.842Z,15.80
2019-04-27T12:08:53.364Z,17.30
2019-04-27T12:09:57.835Z,13.98
2019-04-27T12:11:02.293Z,16.02
2019-04-27T12:12:13.513Z,14.78
2019-04-27T12:13:12.998Z,15.58
2019-04-27T12:14:17.752Z,16.00
2019-04-27T12:15:22.625Z,15.38
2019-04-27T12:16:27.135Z,16.55
2019-04-27T12:17:31.916Z,17.77
2019-04-27T12:18:36.414Z,18.05
2019-04-27T12:19:40.884Z,13.80
2019-04-27T12:20:45.916Z,15.48
2019-04-27T12:21:51.472Z,13.90
2019-04-27T12:22:56.317Z,14.50
2019-04-27T12:24:00.793Z,13.10
2019-04-27T12:25:07.991Z,14.98
2019-04-27T12:26:15.817Z,14.85
2019-04-27T12:27:27.645Z,13.45
2019-04-27T12:28:36.661Z,14.33
2019-04-27T12:29:59.037Z,13.48
2019-04-27T12:31:08.751Z,12.28
2019-04-27T12:32:13.258Z,17.55
2019-04-27T12:33:18.029Z,11.20
2019-04-27T12:34:22.522Z,12.85
2019-04-27T12:35:26.984Z,12.25
2019-04-27T12:36:31.447Z,11.63
2019-04-27T12:37:36.060Z,9.23
2019-04-27T12:38:40.538Z,11.68
2019-04-27T12:39:45.008Z,11.00
2019-04-27T12:40:49.468Z,9.63
2019-04-27T12:41:55.966Z,10.88
2019-04-27T12:43:00.458Z,10.10
2019-04-27T12:44:07.056Z,12.85
2019-04-27T12:45:12.263Z,12.40
2019-04-27T12:46:16.833Z,11.15
2019-04-27T12:47:21.463Z,9.80
2019-04-27T12:48:26.012Z,10.40
2019-04-27T12:49:30.621Z,10.90
2019-04-27T12:50:36.161Z,11.20
2019-04-27T12:51:40.727Z,11.03
2019-04-27T12:52:46.827Z,12.45
2019-04-27T12:53:55.964Z,10.93
2019-04-27T12:55:17.229Z,9.58
2019-04-27T12:56:39.702Z,8.80
2019-04-27T12:57:49.463Z,9.35
2019-04-27T12:58:56.428Z,9.40
2019-04-27T13:00:02.592Z,10.08
2019-04-27T13:01:12.014Z,9.20
2019-04-27T13:02:17.199Z,8.63
2019-04-27T13:03:21.985Z,11.85
2019-04-27T13:04:26.492Z,9.53
2019-04-27T13:05:30.943Z,10.32
2019-04-27T13:06:35.849Z,9.40
2019-04-27T13:07:41.612Z,10.80
2019-04-27T13:08:46.102Z,9.78
2019-04-27T13:09:50.874Z,10.20
2019-04-27T13:10:57.294Z,16.05
2019-04-27T13:12:02.873Z,11.43
2019-04-27T13:13:07.682Z,9.70
2019-04-27T13:14:12.159Z,9.55
2019-04-27T13:15:17.074Z,12.03
2019-04-27T13:16:21.819Z,11.45
2019-04-27T13:17:26.602Z,10.70
2019-04-27T13:18:31.228Z,10.48
2019-04-27T13:19:36.562Z,9.30
2019-04-27T13:20:41.142Z,9.30
2019-04-27T13:21:46.933Z,9.30
2019-04-27T13:22:51.539Z,11.22
2019-04-27T13:24:03.963Z,9.13
2019-04-27T13:25:02.332Z,10.45
2019-04-27T13:26:07.328Z,9.98
2019-04-27T13:27:12.151Z,7.58
2019-04-27T13:28:18.586Z,10.75
2019-04-27T13:29:23.136Z,9.48
2019-04-27T13:30:28.007Z,10.40
2019-04-27T13:31:32.877Z,9.25
2019-04-27T13:32:37.963Z,9.95
2019-04-27T13:33:42.920Z,11.12
2019-04-27T13:34:47.830Z,11.22
2019-04-27T13:35:52.666Z,9.85
2019-04-27T13:36:58.763Z,8.43
2019-04-27T13:38:03.388Z,9.20
2019-04-27T13:39:08.083Z,8.83
2019-04-27T13:40:17.188Z,12.65
2019-04-27T13:41:30.342Z,10.30
2019-04-27T13:42:29.594Z,10.53
2019-04-27T13:43:36.895Z,11.10
2019-04-27T13:44:41.803Z,10.90
2019-04-27T13:45:50.944Z,11.40
2019-04-27T13:47:08.762Z,10.72
2019-04-27T13:48:33.026Z,9.55
2019-04-27T13:49:48.165Z,11.45
2019-04-27T13:51:12.184Z,10.30
2019-04-27T13:52:18.584Z,11.12
2019-04-27T13:53:23.222Z,10.38
2019-04-27T13:54:29.199Z,9.15
2019-04-27T13:55:33.753Z,11.20
2019-04-27T13:56:38.533Z,12.30
2019-04-27T13:57:50.078Z,11.05
2019-04-27T13:58:49.155Z,12.90
2019-04-27T13:59:53.632Z,9.93
2019-04-27T14:00:59.066Z,11.85
2019-04-27T14:02:04.364Z,9.08
2019-04-27T14:03:08.821Z,11.50
2019-04-27T14:04:13.978Z,12.93
2019-04-27T14:05:18.819Z,11.50
2019-04-27T14:06:23.589Z,10.90
2019-04-27T14:07:28.335Z,12.43
2019-04-27T14:08:32.804Z,11.68
2019-04-27T14:09:39.158Z,10.65
2019-04-27T14:10:44.016Z,12.70
2019-04-27T14:11:48.767Z,13.15
2019-04-27T14:12:53.271Z,11.70
2019-04-27T14:13:58.735Z,12.85
2019-04-27T14:15:03.455Z,11.40
2019-04-27T14:16:08.664Z,12.85